sensor_id;sensor_type;location;lat;lon;timestamp;P1;durP1;ratioP1;P2;durP2;ratioP2
38312;SDS011;24114;52.260;6.714;2022-11-15T00:00:58;13.82;;;11.85;;
38312;SDS011;24114;52.260;6.714;2022-11-15T00:03:26;14.30;;;12.80;;
38312;SDS011;24114;52.260;6.714;2022-11-15T00:06:00;14.10;;;12.55;;
38312;SDS011;24114;52.260;6.714;2022-11-15T00:08:29;13.93;;;12.43;;
38312;SDS011;24114;52.260;6.714;2022-11-15T00:10:58;14.18;;;12.68;;
38312;SDS011;24114;52.260;6.714;2022-11-15T00:13:27;14.52;;;12.90;;
38312;SDS011;24114;52.260;6.714;2022-11-15T00:15:57;14.63;;;13.07;;
38312;SDS011;24114;52.260;6.714;2022-11-15T00:18:25;15.30;;;13.27;;
38312;SDS011;24114;52.260;6.714;2022-11-15T00:20:54;14.20;;;12.70;;
38312;SDS011;24114;52.260;6.714;2022-11-15T00:23:22;14.77;;;12.75;;
38312;SDS011;24114;52.260;6.714;2022-11-15T00:25:54;13.95;;;12.52;;
38312;SDS011;24114;52.260;6.714;2022-11-15T00:28:22;16.25;;;13.35;;
38312;SDS011;24114;52.260;6.714;2022-11-15T00:30:50;15.38;;;13.70;;
38312;SDS011;24114;52.260;6.714;2022-11-15T00:33:19;14.93;;;13.05;;
38312;SDS011;24114;52.260;6.714;2022-11-15T00:35:47;16.60;;;14.00;;
38312;SDS011;24114;52.260;6.714;2022-11-15T00:38:15;15.52;;;13.85;;
38312;SDS011;24114;52.260;6.714;2022-11-15T00:40:42;17.40;;;14.10;;
38312;SDS011;24114;52.260;6.714;2022-11-15T00:43:10;15.32;;;13.68;;
38312;SDS011;24114;52.260;6.714;2022-11-15T00:45:38;17.40;;;14.47;;
38312;SDS011;24114;52.260;6.714;2022-11-15T00:48:06;18.08;;;14.98;;
38312;SDS011;24114;52.260;6.714;2022-11-15T00:50:35;18.40;;;15.23;;
38312;SDS011;24114;52.260;6.714;2022-11-15T00:53:03;20.52;;;15.82;;
38312;SDS011;24114;52.260;6.714;2022-11-15T00:55:31;16.85;;;14.20;;
38312;SDS011;24114;52.260;6.714;2022-11-15T00:57:58;20.55;;;16.55;;
38312;SDS011;24114;52.260;6.714;2022-11-15T01:00:26;21.48;;;17.13;;
38312;SDS011;24114;52.260;6.714;2022-11-15T01:02:54;21.23;;;17.13;;
38312;SDS011;24114;52.260;6.714;2022-11-15T01:05:22;21.63;;;16.17;;
38312;SDS011;24114;52.260;6.714;2022-11-15T01:07:52;22.10;;;15.75;;
38312;SDS011;24114;52.260;6.714;2022-11-15T01:10:20;23.13;;;17.13;;
38312;SDS011;24114;52.260;6.714;2022-11-15T01:12:48;22.67;;;17.27;;
38312;SDS011;24114;52.260;6.714;2022-11-15T01:15:16;22.63;;;17.15;;
38312;SDS011;24114;52.260;6.714;2022-11-15T01:17:44;21.85;;;16.90;;
38312;SDS011;24114;52.260;6.714;2022-11-15T01:20:11;23.50;;;17.40;;
38312;SDS011;24114;52.260;6.714;2022-11-15T01:22:40;22.00;;;17.00;;
38312;SDS011;24114;52.260;6.714;2022-11-15T01:25:09;21.42;;;16.52;;
38312;SDS011;24114;52.260;6.714;2022-11-15T01:27:37;21.88;;;16.90;;
38312;SDS011;24114;52.260;6.714;2022-11-15T01:30:06;21.48;;;17.73;;
38312;SDS011;24114;52.260;6.714;2022-11-15T01:32:34;20.00;;;15.85;;
38312;SDS011;24114;52.260;6.714;2022-11-15T01:35:02;19.40;;;16.33;;
38312;SDS011;24114;52.260;6.714;2022-11-15T01:37:30;21.92;;;16.95;;
38312;SDS011;24114;52.260;6.714;2022-11-15T01:39:58;21.40;;;17.13;;
38312;SDS011;24114;52.260;6.714;2022-11-15T01:42:27;19.70;;;16.88;;
38312;SDS011;24114;52.260;6.714;2022-11-15T01:44:54;21.77;;;17.73;;
38312;SDS011;24114;52.260;6.714;2022-11-15T01:47:23;21.63;;;17.70;;
38312;SDS011;24114;52.260;6.714;2022-11-15T01:49:54;22.50;;;17.25;;
38312;SDS011;24114;52.260;6.714;2022-11-15T01:52:24;20.85;;;17.10;;
38312;SDS011;24114;52.260;6.714;2022-11-15T01:54:53;21.08;;;16.75;;
38312;SDS011;24114;52.260;6.714;2022-11-15T01:57:24;22.58;;;18.02;;
38312;SDS011;24114;52.260;6.714;2022-11-15T01:59:53;20.52;;;17.38;;
38312;SDS011;24114;52.260;6.714;2022-11-15T02:02:21;19.92;;;16.88;;
38312;SDS011;24114;52.260;6.714;2022-11-15T02:04:49;20.20;;;16.75;;
38312;SDS011;24114;52.260;6.714;2022-11-15T02:07:17;21.23;;;17.03;;
38312;SDS011;24114;52.260;6.714;2022-11-15T02:09:46;19.75;;;16.75;;
38312;SDS011;24114;52.260;6.714;2022-11-15T02:12:14;18.97;;;16.57;;
38312;SDS011;24114;52.260;6.714;2022-11-15T02:14:44;23.13;;;17.65;;
38312;SDS011;24114;52.260;6.714;2022-11-15T02:17:21;22.35;;;17.90;;
38312;SDS011;24114;52.260;6.714;2022-11-15T02:20:08;19.92;;;17.25;;
38312;SDS011;24114;52.260;6.714;2022-11-15T02:22:51;22.63;;;18.13;;
38312;SDS011;24114;52.260;6.714;2022-11-15T02:25:37;22.10;;;17.60;;
38312;SDS011;24114;52.260;6.714;2022-11-15T02:28:16;22.17;;;18.17;;
38312;SDS011;24114;52.260;6.714;2022-11-15T02:31:06;21.33;;;17.92;;
38312;SDS011;24114;52.260;6.714;2022-11-15T02:33:40;21.90;;;18.10;;
38312;SDS011;24114;52.260;6.714;2022-11-15T02:36:10;24.00;;;19.52;;
38312;SDS011;24114;52.260;6.714;2022-11-15T02:38:42;22.73;;;19.38;;
38312;SDS011;24114;52.260;6.714;2022-11-15T02:41:20;22.60;;;19.52;;
38312;SDS011;24114;52.260;6.714;2022-11-15T02:43:53;23.63;;;18.90;;
38312;SDS011;24114;52.260;6.714;2022-11-15T02:46:27;21.67;;;18.33;;
38312;SDS011;24114;52.260;6.714;2022-11-15T02:49:14;25.15;;;18.95;;
38312;SDS011;24114;52.260;6.714;2022-11-15T02:51:42;22.38;;;18.65;;
38312;SDS011;24114;52.260;6.714;2022-11-15T02:54:12;23.57;;;19.47;;
38312;SDS011;24114;52.260;6.714;2022-11-15T02:56:42;24.52;;;18.85;;
38312;SDS011;24114;52.260;6.714;2022-11-15T02:59:13;24.25;;;19.63;;
38312;SDS011;24114;52.260;6.714;2022-11-15T03:01:56;21.42;;;18.92;;
38312;SDS011;24114;52.260;6.714;2022-11-15T03:04:35;22.80;;;18.65;;
38312;SDS011;24114;52.260;6.714;2022-11-15T03:07:07;22.27;;;18.92;;
38312;SDS011;24114;52.260;6.714;2022-11-15T03:09:39;23.13;;;18.75;;
38312;SDS011;24114;52.260;6.714;2022-11-15T03:12:10;21.80;;;18.45;;
38312;SDS011;24114;52.260;6.714;2022-11-15T03:14:40;21.40;;;18.47;;
38312;SDS011;24114;52.260;6.714;2022-11-15T03:17:14;22.60;;;19.15;;
38312;SDS011;24114;52.260;6.714;2022-11-15T03:19:46;20.33;;;17.80;;
38312;SDS011;24114;52.260;6.714;2022-11-15T03:22:15;21.65;;;18.10;;
38312;SDS011;24114;52.260;6.714;2022-11-15T03:24:45;24.45;;;18.17;;
38312;SDS011;24114;52.260;6.714;2022-11-15T03:27:15;19.90;;;17.47;;
38312;SDS011;24114;52.260;6.714;2022-11-15T03:29:46;20.95;;;18.27;;
38312;SDS011;24114;52.260;6.714;2022-11-15T03:32:20;21.38;;;18.65;;
38312;SDS011;24114;52.260;6.714;2022-11-15T03:34:51;20.90;;;17.33;;
38312;SDS011;24114;52.260;6.714;2022-11-15T03:37:21;20.83;;;17.80;;
38312;SDS011;24114;52.260;6.714;2022-11-15T03:39:51;21.23;;;18.17;;
38312;SDS011;24114;52.260;6.714;2022-11-15T03:42:20;20.27;;;17.30;;
38312;SDS011;24114;52.260;6.714;2022-11-15T03:44:51;19.50;;;16.48;;
38312;SDS011;24114;52.260;6.714;2022-11-15T03:47:24;18.48;;;16.58;;
38312;SDS011;24114;52.260;6.714;2022-11-15T03:49:55;18.43;;;16.43;;
38312;SDS011;24114;52.260;6.714;2022-11-15T03:52:25;20.83;;;17.55;;
38312;SDS011;24114;52.260;6.714;2022-11-15T03:54:54;18.92;;;16.40;;
38312;SDS011;24114;52.260;6.714;2022-11-15T03:57:22;18.92;;;16.42;;
38312;SDS011;24114;52.260;6.714;2022-11-15T03:59:50;18.30;;;15.98;;
38312;SDS011;24114;52.260;6.714;2022-11-15T04:02:18;19.25;;;16.42;;
38312;SDS011;24114;52.260;6.714;2022-11-15T04:04:47;17.92;;;15.50;;
38312;SDS011;24114;52.260;6.714;2022-11-15T04:07:15;17.55;;;15.60;;
38312;SDS011;24114;52.260;6.714;2022-11-15T04:09:43;18.17;;;15.68;;
38312;SDS011;24114;52.260;6.714;2022-11-15T04:12:28;18.93;;;16.37;;
38312;SDS011;24114;52.260;6.714;2022-11-15T04:14:59;18.75;;;16.63;;
38312;SDS011;24114;52.260;6.714;2022-11-15T04:17:37;17.38;;;15.57;;
38312;SDS011;24114;52.260;6.714;2022-11-15T04:20:08;17.08;;;15.30;;
38312;SDS011;24114;52.260;6.714;2022-11-15T04:22:55;17.10;;;15.30;;
38312;SDS011;24114;52.260;6.714;2022-11-15T04:25:41;17.77;;;15.87;;
38312;SDS011;24114;52.260;6.714;2022-11-15T04:28:10;17.50;;;15.80;;
38312;SDS011;24114;52.260;6.714;2022-11-15T04:30:38;18.30;;;15.33;;
38312;SDS011;24114;52.260;6.714;2022-11-15T04:33:05;17.63;;;15.80;;
38312;SDS011;24114;52.260;6.714;2022-11-15T04:35:34;16.67;;;14.80;;
38312;SDS011;24114;52.260;6.714;2022-11-15T04:38:03;17.23;;;15.43;;
38312;SDS011;24114;52.260;6.714;2022-11-15T04:40:31;17.52;;;14.95;;
38312;SDS011;24114;52.260;6.714;2022-11-15T04:42:58;17.17;;;15.13;;
38312;SDS011;24114;52.260;6.714;2022-11-15T04:45:29;20.15;;;15.05;;
38312;SDS011;24114;52.260;6.714;2022-11-15T04:47:57;16.48;;;14.75;;
38312;SDS011;24114;52.260;6.714;2022-11-15T04:50:25;16.87;;;15.17;;
38312;SDS011;24114;52.260;6.714;2022-11-15T04:52:54;16.88;;;15.15;;
38312;SDS011;24114;52.260;6.714;2022-11-15T04:55:22;17.45;;;15.13;;
38312;SDS011;24114;52.260;6.714;2022-11-15T04:57:56;17.98;;;15.00;;
38312;SDS011;24114;52.260;6.714;2022-11-15T05:00:25;16.92;;;15.20;;
38312;SDS011;24114;52.260;6.714;2022-11-15T05:02:52;16.95;;;14.68;;
38312;SDS011;24114;52.260;6.714;2022-11-15T05:05:38;17.25;;;14.77;;
38312;SDS011;24114;52.260;6.714;2022-11-15T05:08:07;15.80;;;14.23;;
38312;SDS011;24114;52.260;6.714;2022-11-15T05:10:35;16.70;;;14.95;;
38312;SDS011;24114;52.260;6.714;2022-11-15T05:13:02;16.52;;;14.77;;
38312;SDS011;24114;52.260;6.714;2022-11-15T05:15:30;16.67;;;14.95;;
38312;SDS011;24114;52.260;6.714;2022-11-15T05:17:58;18.75;;;15.30;;
38312;SDS011;24114;52.260;6.714;2022-11-15T05:20:26;17.63;;;15.27;;
38312;SDS011;24114;52.260;6.714;2022-11-15T05:22:54;16.75;;;14.55;;
38312;SDS011;24114;52.260;6.714;2022-11-15T05:25:23;17.30;;;15.23;;
38312;SDS011;24114;52.260;6.714;2022-11-15T05:27:51;17.13;;;14.57;;
38312;SDS011;24114;52.260;6.714;2022-11-15T05:30:19;16.85;;;14.75;;
38312;SDS011;24114;52.260;6.714;2022-11-15T05:32:47;16.48;;;14.77;;
38312;SDS011;24114;52.260;6.714;2022-11-15T05:35:17;16.52;;;14.68;;
38312;SDS011;24114;52.260;6.714;2022-11-15T05:37:47;15.98;;;14.38;;
38312;SDS011;24114;52.260;6.714;2022-11-15T05:40:15;17.27;;;14.45;;
38312;SDS011;24114;52.260;6.714;2022-11-15T05:45:13;16.95;;;15.00;;
38312;SDS011;24114;52.260;6.714;2022-11-15T05:47:41;15.38;;;13.52;;
38312;SDS011;24114;52.260;6.714;2022-11-15T05:50:10;15.40;;;13.85;;
38312;SDS011;24114;52.260;6.714;2022-11-15T05:52:39;17.02;;;15.00;;
38312;SDS011;24114;52.260;6.714;2022-11-15T05:55:07;17.10;;;14.98;;
38312;SDS011;24114;52.260;6.714;2022-11-15T05:57:36;17.38;;;14.55;;
38312;SDS011;24114;52.260;6.714;2022-11-15T06:00:06;17.38;;;15.45;;
38312;SDS011;24114;52.260;6.714;2022-11-15T06:02:35;17.00;;;15.20;;
38312;SDS011;24114;52.260;6.714;2022-11-15T06:05:03;16.70;;;15.07;;
38312;SDS011;24114;52.260;6.714;2022-11-15T06:07:31;18.20;;;15.50;;
38312;SDS011;24114;52.260;6.714;2022-11-15T06:09:59;17.50;;;15.68;;
38312;SDS011;24114;52.260;6.714;2022-11-15T06:12:26;18.35;;;15.43;;
38312;SDS011;24114;52.260;6.714;2022-11-15T06:14:54;22.08;;;17.58;;
38312;SDS011;24114;52.260;6.714;2022-11-15T06:17:23;18.33;;;16.48;;
38312;SDS011;24114;52.260;6.714;2022-11-15T06:19:51;18.58;;;16.77;;
38312;SDS011;24114;52.260;6.714;2022-11-15T06:22:19;19.40;;;17.35;;
38312;SDS011;24114;52.260;6.714;2022-11-15T06:24:46;19.55;;;17.58;;
38312;SDS011;24114;52.260;6.714;2022-11-15T06:27:14;19.30;;;17.15;;
38312;SDS011;24114;52.260;6.714;2022-11-15T06:29:42;19.92;;;17.88;;
38312;SDS011;24114;52.260;6.714;2022-11-15T06:32:10;20.30;;;18.20;;
38312;SDS011;24114;52.260;6.714;2022-11-15T06:34:39;19.50;;;17.40;;
38312;SDS011;24114;52.260;6.714;2022-11-15T06:37:07;20.92;;;18.73;;
38312;SDS011;24114;52.260;6.714;2022-11-15T06:39:35;22.00;;;19.67;;
38312;SDS011;24114;52.260;6.714;2022-11-15T06:42:02;20.80;;;18.67;;
38312;SDS011;24114;52.260;6.714;2022-11-15T06:44:30;21.35;;;19.15;;
38312;SDS011;24114;52.260;6.714;2022-11-15T06:46:58;23.73;;;20.05;;
38312;SDS011;24114;52.260;6.714;2022-11-15T06:49:25;21.33;;;19.05;;
38312;SDS011;24114;52.260;6.714;2022-11-15T06:51:54;20.75;;;18.55;;
38312;SDS011;24114;52.260;6.714;2022-11-15T06:54:22;22.45;;;19.80;;
38312;SDS011;24114;52.260;6.714;2022-11-15T06:56:50;20.67;;;18.58;;
38312;SDS011;24114;52.260;6.714;2022-11-15T06:59:18;21.33;;;19.05;;
38312;SDS011;24114;52.260;6.714;2022-11-15T07:01:45;23.45;;;20.10;;
38312;SDS011;24114;52.260;6.714;2022-11-15T07:04:13;21.60;;;19.30;;
38312;SDS011;24114;52.260;6.714;2022-11-15T07:06:41;21.88;;;19.55;;
38312;SDS011;24114;52.260;6.714;2022-11-15T07:09:10;21.40;;;19.17;;
38312;SDS011;24114;52.260;6.714;2022-11-15T07:11:37;21.75;;;19.48;;
38312;SDS011;24114;52.260;6.714;2022-11-15T07:14:05;22.52;;;20.25;;
38312;SDS011;24114;52.260;6.714;2022-11-15T07:16:33;24.90;;;21.25;;
38312;SDS011;24114;52.260;6.714;2022-11-15T07:19:00;21.90;;;19.55;;
38312;SDS011;24114;52.260;6.714;2022-11-15T07:21:28;21.53;;;19.30;;
38312;SDS011;24114;52.260;6.714;2022-11-15T07:23:56;21.98;;;19.65;;
38312;SDS011;24114;52.260;6.714;2022-11-15T07:26:25;22.60;;;19.73;;
38312;SDS011;24114;52.260;6.714;2022-11-15T07:28:53;22.42;;;19.73;;
38312;SDS011;24114;52.260;6.714;2022-11-15T07:31:21;20.40;;;18.30;;
38312;SDS011;24114;52.260;6.714;2022-11-15T07:33:48;20.75;;;18.63;;
38312;SDS011;24114;52.260;6.714;2022-11-15T07:36:16;21.25;;;19.02;;
38312;SDS011;24114;52.260;6.714;2022-11-15T07:40:39;21.65;;;19.35;;
38312;SDS011;24114;52.260;6.714;2022-11-15T07:43:07;20.10;;;18.00;;
38312;SDS011;24114;52.260;6.714;2022-11-15T07:45:39;20.25;;;18.15;;
38312;SDS011;24114;52.260;6.714;2022-11-15T07:48:08;20.97;;;18.77;;
38312;SDS011;24114;52.260;6.714;2022-11-15T07:51:01;21.85;;;19.10;;
38312;SDS011;24114;52.260;6.714;2022-11-15T07:53:29;20.88;;;18.67;;
38312;SDS011;24114;52.260;6.714;2022-11-15T07:55:57;20.52;;;18.42;;
38312;SDS011;24114;52.260;6.714;2022-11-15T07:58:25;20.80;;;18.60;;
38312;SDS011;24114;52.260;6.714;2022-11-15T08:00:53;21.23;;;19.02;;
38312;SDS011;24114;52.260;6.714;2022-11-15T08:03:21;24.70;;;20.35;;
38312;SDS011;24114;52.260;6.714;2022-11-15T08:05:50;24.10;;;20.55;;
38312;SDS011;24114;52.260;6.714;2022-11-15T08:08:19;21.93;;;19.63;;
38312;SDS011;24114;52.260;6.714;2022-11-15T08:10:47;24.80;;;21.13;;
38312;SDS011;24114;52.260;6.714;2022-11-15T08:13:15;26.52;;;22.13;;
38312;SDS011;24114;52.260;6.714;2022-11-15T08:15:43;23.70;;;21.10;;
38312;SDS011;24114;52.260;6.714;2022-11-15T08:18:11;23.23;;;20.73;;
38312;SDS011;24114;52.260;6.714;2022-11-15T08:20:40;24.67;;;21.23;;
38312;SDS011;24114;52.260;6.714;2022-11-15T08:23:09;24.60;;;21.87;;
38312;SDS011;24114;52.260;6.714;2022-11-15T08:25:39;23.67;;;21.05;;
38312;SDS011;24114;52.260;6.714;2022-11-15T08:28:07;25.30;;;22.25;;
38312;SDS011;24114;52.260;6.714;2022-11-15T08:30:37;23.90;;;21.08;;
38312;SDS011;24114;52.260;6.714;2022-11-15T08:33:09;24.48;;;21.00;;
38312;SDS011;24114;52.260;6.714;2022-11-15T08:35:38;22.38;;;19.98;;
38312;SDS011;24114;52.260;6.714;2022-11-15T08:38:06;21.60;;;19.27;;
38312;SDS011;24114;52.260;6.714;2022-11-15T08:40:34;22.45;;;18.92;;
38312;SDS011;24114;52.260;6.714;2022-11-15T08:43:03;21.13;;;18.20;;
38312;SDS011;24114;52.260;6.714;2022-11-15T08:45:31;21.35;;;17.75;;
38312;SDS011;24114;52.260;6.714;2022-11-15T08:48:01;18.77;;;16.30;;
38312;SDS011;24114;52.260;6.714;2022-11-15T08:50:30;17.52;;;15.60;;
38312;SDS011;24114;52.260;6.714;2022-11-15T08:52:59;16.35;;;14.20;;
38312;SDS011;24114;52.260;6.714;2022-11-15T08:55:31;14.77;;;13.27;;
38312;SDS011;24114;52.260;6.714;2022-11-15T08:57:59;15.70;;;13.65;;
38312;SDS011;24114;52.260;6.714;2022-11-15T09:00:28;15.00;;;13.05;;
38312;SDS011;24114;52.260;6.714;2022-11-15T09:02:56;14.55;;;12.80;;
38312;SDS011;24114;52.260;6.714;2022-11-15T09:05:23;11.93;;;10.73;;
38312;SDS011;24114;52.260;6.714;2022-11-15T09:07:52;13.98;;;11.70;;
38312;SDS011;24114;52.260;6.714;2022-11-15T09:10:20;11.88;;;10.77;;
38312;SDS011;24114;52.260;6.714;2022-11-15T09:12:48;13.07;;;11.43;;
38312;SDS011;24114;52.260;6.714;2022-11-15T09:15:16;13.07;;;11.80;;
38312;SDS011;24114;52.260;6.714;2022-11-15T09:17:45;14.70;;;12.82;;
38312;SDS011;24114;52.260;6.714;2022-11-15T09:20:13;12.87;;;11.67;;
38312;SDS011;24114;52.260;6.714;2022-11-15T09:22:41;13.70;;;12.40;;
38312;SDS011;24114;52.260;6.714;2022-11-15T09:25:08;14.48;;;13.07;;
38312;SDS011;24114;52.260;6.714;2022-11-15T09:27:36;13.93;;;12.57;;
38312;SDS011;24114;52.260;6.714;2022-11-15T09:30:04;12.20;;;11.02;;
38312;SDS011;24114;52.260;6.714;2022-11-15T09:32:33;11.73;;;10.63;;
38312;SDS011;24114;52.260;6.714;2022-11-15T09:35:06;11.77;;;10.68;;
38312;SDS011;24114;52.260;6.714;2022-11-15T09:37:34;11.50;;;10.40;;
38312;SDS011;24114;52.260;6.714;2022-11-15T09:40:02;12.30;;;11.00;;
38312;SDS011;24114;52.260;6.714;2022-11-15T09:42:34;12.07;;;10.88;;
38312;SDS011;24114;52.260;6.714;2022-11-15T09:45:15;10.10;;;9.10;;
38312;SDS011;24114;52.260;6.714;2022-11-15T09:50:38;8.13;;;7.07;;
38312;SDS011;24114;52.260;6.714;2022-11-15T09:53:09;8.73;;;7.85;;
38312;SDS011;24114;52.260;6.714;2022-11-15T09:55:40;9.43;;;8.53;;
38312;SDS011;24114;52.260;6.714;2022-11-15T09:58:16;8.77;;;7.28;;
38312;SDS011;24114;52.260;6.714;2022-11-15T10:00:49;9.00;;;7.40;;
38312;SDS011;24114;52.260;6.714;2022-11-15T10:03:20;7.57;;;6.75;;
38312;SDS011;24114;52.260;6.714;2022-11-15T10:05:54;5.78;;;5.20;;
38312;SDS011;24114;52.260;6.714;2022-11-15T10:11:15;6.15;;;5.28;;
38312;SDS011;24114;52.260;6.714;2022-11-15T10:14:05;6.88;;;5.70;;
38312;SDS011;24114;52.260;6.714;2022-11-15T10:16:43;6.07;;;5.00;;
38312;SDS011;24114;52.260;6.714;2022-11-15T10:19:35;6.55;;;5.43;;
38312;SDS011;24114;52.260;6.714;2022-11-15T10:22:15;6.20;;;5.70;;
38312;SDS011;24114;52.260;6.714;2022-11-15T10:24:47;5.97;;;5.38;;
38312;SDS011;24114;52.260;6.714;2022-11-15T10:27:16;6.70;;;6.07;;
38312;SDS011;24114;52.260;6.714;2022-11-15T10:29:45;7.35;;;6.55;;
38312;SDS011;24114;52.260;6.714;2022-11-15T10:32:15;6.93;;;6.33;;
38312;SDS011;24114;52.260;6.714;2022-11-15T10:34:44;6.97;;;6.28;;
38312;SDS011;24114;52.260;6.714;2022-11-15T10:37:13;10.45;;;6.88;;
38312;SDS011;24114;52.260;6.714;2022-11-15T10:39:41;8.85;;;6.53;;
38312;SDS011;24114;52.260;6.714;2022-11-15T10:42:16;8.80;;;5.85;;
38312;SDS011;24114;52.260;6.714;2022-11-15T10:44:45;6.57;;;5.97;;
38312;SDS011;24114;52.260;6.714;2022-11-15T10:50:06;5.03;;;4.50;;
38312;SDS011;24114;52.260;6.714;2022-11-15T10:52:43;4.13;;;3.70;;
38312;SDS011;24114;52.260;6.714;2022-11-15T10:55:21;4.05;;;3.22;;
38312;SDS011;24114;52.260;6.714;2022-11-15T10:57:51;5.47;;;3.22;;
38312;SDS011;24114;52.260;6.714;2022-11-15T11:00:27;3.78;;;3.40;;
38312;SDS011;24114;52.260;6.714;2022-11-15T11:02:58;3.40;;;3.03;;
38312;SDS011;24114;52.260;6.714;2022-11-15T11:05:27;4.47;;;3.30;;
38312;SDS011;24114;52.260;6.714;2022-11-15T11:08:23;3.85;;;3.40;;
38312;SDS011;24114;52.260;6.714;2022-11-15T11:10:51;2.95;;;2.10;;
38312;SDS011;24114;52.260;6.714;2022-11-15T11:13:29;2.92;;;1.70;;
38312;SDS011;24114;52.260;6.714;2022-11-15T11:15:59;3.33;;;2.13;;
38312;SDS011;24114;52.260;6.714;2022-11-15T11:18:45;4.28;;;2.53;;
38312;SDS011;24114;52.260;6.714;2022-11-15T11:21:18;2.40;;;1.35;;
38312;SDS011;24114;52.260;6.714;2022-11-15T11:24:02;2.42;;;1.20;;
38312;SDS011;24114;52.260;6.714;2022-11-15T11:26:38;4.32;;;1.40;;
38312;SDS011;24114;52.260;6.714;2022-11-15T11:29:16;3.72;;;1.52;;
38312;SDS011;24114;52.260;6.714;2022-11-15T11:31:51;2.47;;;1.48;;
38312;SDS011;24114;52.260;6.714;2022-11-15T11:34:31;2.47;;;1.35;;
38312;SDS011;24114;52.260;6.714;2022-11-15T11:37:07;3.35;;;1.42;;
38312;SDS011;24114;52.260;6.714;2022-11-15T11:39:43;2.95;;;1.30;;
38312;SDS011;24114;52.260;6.714;2022-11-15T11:42:26;2.17;;;1.20;;
38312;SDS011;24114;52.260;6.714;2022-11-15T11:44:59;2.17;;;1.10;;
38312;SDS011;24114;52.260;6.714;2022-11-15T11:47:38;3.33;;;1.80;;
38312;SDS011;24114;52.260;6.714;2022-11-15T11:50:10;2.45;;;1.10;;
38312;SDS011;24114;52.260;6.714;2022-11-15T11:52:41;6.18;;;2.95;;
38312;SDS011;24114;52.260;6.714;2022-11-15T11:55:14;10.40;;;5.03;;
38312;SDS011;24114;52.260;6.714;2022-11-15T11:57:44;7.33;;;3.43;;
38312;SDS011;24114;52.260;6.714;2022-11-15T12:00:17;5.32;;;3.38;;
38312;SDS011;24114;52.260;6.714;2022-11-15T12:02:47;10.15;;;5.70;;
38312;SDS011;24114;52.260;6.714;2022-11-15T12:05:22;8.15;;;4.43;;
38312;SDS011;24114;52.260;6.714;2022-11-15T12:07:59;10.20;;;6.13;;
38312;SDS011;24114;52.260;6.714;2022-11-15T12:10:32;9.02;;;5.72;;
38312;SDS011;24114;52.260;6.714;2022-11-15T12:13:02;4.03;;;2.97;;
38312;SDS011;24114;52.260;6.714;2022-11-15T12:15:33;3.80;;;2.40;;
38312;SDS011;24114;52.260;6.714;2022-11-15T12:18:03;2.72;;;2.00;;
38312;SDS011;24114;52.260;6.714;2022-11-15T12:20:33;3.15;;;2.65;;
38312;SDS011;24114;52.260;6.714;2022-11-15T12:23:04;3.28;;;2.50;;
38312;SDS011;24114;52.260;6.714;2022-11-15T12:25:36;13.90;;;10.48;;
38312;SDS011;24114;52.260;6.714;2022-11-15T12:28:12;3.70;;;2.30;;
38312;SDS011;24114;52.260;6.714;2022-11-15T12:30:43;4.30;;;3.05;;
38312;SDS011;24114;52.260;6.714;2022-11-15T12:33:30;4.22;;;3.15;;
38312;SDS011;24114;52.260;6.714;2022-11-15T12:36:00;4.05;;;3.70;;
38312;SDS011;24114;52.260;6.714;2022-11-15T12:38:53;3.63;;;2.97;;
38312;SDS011;24114;52.260;6.714;2022-11-15T12:41:24;3.17;;;2.78;;
38312;SDS011;24114;52.260;6.714;2022-11-15T12:43:53;6.00;;;3.22;;
38312;SDS011;24114;52.260;6.714;2022-11-15T12:49:44;5.80;;;4.93;;
38312;SDS011;24114;52.260;6.714;2022-11-15T12:52:13;7.07;;;4.10;;
38312;SDS011;24114;52.260;6.714;2022-11-15T12:54:55;9.02;;;3.67;;
38312;SDS011;24114;52.260;6.714;2022-11-15T12:57:35;3.83;;;3.47;;
38312;SDS011;24114;52.260;6.714;2022-11-15T13:03:21;4.35;;;3.75;;
38312;SDS011;24114;52.260;6.714;2022-11-15T13:06:02;5.13;;;3.78;;
38312;SDS011;24114;52.260;6.714;2022-11-15T13:08:47;4.23;;;3.37;;
38312;SDS011;24114;52.260;6.714;2022-11-15T13:17:12;3.80;;;3.40;;
38312;SDS011;24114;52.260;6.714;2022-11-15T13:19:48;3.77;;;3.40;;
38312;SDS011;24114;52.260;6.714;2022-11-15T13:22:19;3.45;;;3.10;;
38312;SDS011;24114;52.260;6.714;2022-11-15T13:25:11;3.97;;;2.53;;
38312;SDS011;24114;52.260;6.714;2022-11-15T13:27:45;3.27;;;2.30;;
38312;SDS011;24114;52.260;6.714;2022-11-15T13:30:19;2.28;;;1.73;;
38312;SDS011;24114;52.260;6.714;2022-11-15T13:32:48;3.10;;;1.67;;
38312;SDS011;24114;52.260;6.714;2022-11-15T13:35:20;1.60;;;1.30;;
38312;SDS011;24114;52.260;6.714;2022-11-15T13:37:49;2.17;;;1.10;;
38312;SDS011;24114;52.260;6.714;2022-11-15T13:40:24;3.45;;;1.27;;
38312;SDS011;24114;52.260;6.714;2022-11-15T13:42:56;1.57;;;1.10;;
38312;SDS011;24114;52.260;6.714;2022-11-15T13:45:26;2.67;;;1.13;;
38312;SDS011;24114;52.260;6.714;2022-11-15T13:47:54;2.45;;;1.00;;
38312;SDS011;24114;52.260;6.714;2022-11-15T13:50:24;1.50;;;0.73;;
38312;SDS011;24114;52.260;6.714;2022-11-15T13:52:55;1.20;;;0.63;;
38312;SDS011;24114;52.260;6.714;2022-11-15T13:55:25;1.98;;;0.70;;
38312;SDS011;24114;52.260;6.714;2022-11-15T13:57:54;1.65;;;0.60;;
38312;SDS011;24114;52.260;6.714;2022-11-15T14:00:27;1.95;;;0.70;;
38312;SDS011;24114;52.260;6.714;2022-11-15T14:03:05;1.55;;;0.60;;
38312;SDS011;24114;52.260;6.714;2022-11-15T14:05:34;1.73;;;0.60;;
38312;SDS011;24114;52.260;6.714;2022-11-15T14:08:03;2.20;;;0.63;;
38312;SDS011;24114;52.260;6.714;2022-11-15T14:10:33;2.58;;;0.70;;
38312;SDS011;24114;52.260;6.714;2022-11-15T14:13:02;3.08;;;1.00;;
38312;SDS011;24114;52.260;6.714;2022-11-15T14:15:33;1.87;;;1.77;;
38312;SDS011;24114;52.260;6.714;2022-11-15T14:18:02;6.25;;;5.18;;
38312;SDS011;24114;52.260;6.714;2022-11-15T14:20:31;5.68;;;5.00;;
38312;SDS011;24114;52.260;6.714;2022-11-15T14:23:00;4.38;;;2.60;;
38312;SDS011;24114;52.260;6.714;2022-11-15T14:25:29;2.30;;;0.90;;
38312;SDS011;24114;52.260;6.714;2022-11-15T14:28:28;1.70;;;0.80;;
38312;SDS011;24114;52.260;6.714;2022-11-15T14:30:59;2.78;;;1.23;;
38312;SDS011;24114;52.260;6.714;2022-11-15T14:33:28;2.25;;;1.35;;
38312;SDS011;24114;52.260;6.714;2022-11-15T14:35:58;1.80;;;0.93;;
38312;SDS011;24114;52.260;6.714;2022-11-15T14:38:29;1.85;;;0.50;;
38312;SDS011;24114;52.260;6.714;2022-11-15T14:41:01;1.37;;;0.70;;
38312;SDS011;24114;52.260;6.714;2022-11-15T14:43:28;2.00;;;0.57;;
38312;SDS011;24114;52.260;6.714;2022-11-15T14:45:56;2.30;;;0.63;;
38312;SDS011;24114;52.260;6.714;2022-11-15T14:48:26;2.08;;;1.00;;
38312;SDS011;24114;52.260;6.714;2022-11-15T14:50:55;3.55;;;1.50;;
38312;SDS011;24114;52.260;6.714;2022-11-15T14:53:23;2.17;;;1.30;;
38312;SDS011;24114;52.260;6.714;2022-11-15T14:55:51;1.52;;;0.70;;
38312;SDS011;24114;52.260;6.714;2022-11-15T14:58:19;1.30;;;0.22;;
38312;SDS011;24114;52.260;6.714;2022-11-15T15:00:46;1.42;;;0.22;;
38312;SDS011;24114;52.260;6.714;2022-11-15T15:03:16;1.10;;;0.30;;
38312;SDS011;24114;52.260;6.714;2022-11-15T15:05:43;1.00;;;0.30;;
38312;SDS011;24114;52.260;6.714;2022-11-15T15:09:40;1.60;;;0.40;;
38312;SDS011;24114;52.260;6.714;2022-11-15T15:12:15;1.02;;;0.30;;
38312;SDS011;24114;52.260;6.714;2022-11-15T15:14:44;2.13;;;0.40;;
38312;SDS011;24114;52.260;6.714;2022-11-15T15:17:13;1.15;;;0.40;;
38312;SDS011;24114;52.260;6.714;2022-11-15T15:19:41;2.08;;;0.73;;